createdAt,value
2019-04-25T00:01:31.243Z,76.60
2019-04-25T00:04:01.902Z,76.60
2019-04-25T00:06:32.600Z,76.50
2019-04-25T00:09:01.948Z,76.50
2019-04-25T00:11:31.262Z,76.50
2019-04-25T00:14:01.575Z,76.60
2019-04-25T00:16:32.281Z,76.70
2019-04-25T00:19:01.850Z,76.80
2019-04-25T00:21:40.405Z,76.60
2019-04-25T00:24:21.886Z,76.70
2019-04-25T00:26:53.262Z,76.60
2019-04-25T00:29:22.535Z,76.70
2019-04-25T00:31:52.847Z,76.60
2019-04-25T00:34:22.174Z,76.60
2019-04-25T00:36:51.560Z,76.60
2019-04-25T00:39:21.774Z,76.60
2019-04-25T00:41:51.981Z,76.70
2019-04-25T00:44:21.944Z,76.80
2019-04-25T00:46:54.305Z,76.80
2019-04-25T00:49:22.066Z,76.80
2019-04-25T00:51:52.388Z,76.80
2019-04-25T00:54:22.676Z,76.80
2019-04-25T00:56:52.772Z,76.90
2019-04-25T00:59:28.667Z,76.90
2019-04-25T01:02:13.700Z,76.90
2019-04-25T01:04:45.400Z,76.90
2019-04-25T01:07:14.448Z,77.00
2019-04-25T01:09:43.506Z,77.00
2019-04-25T01:12:13.856Z,77.10
2019-04-25T01:14:42.856Z,77.10
2019-04-25T01:17:11.791Z,77.30
2019-04-25T01:19:40.673Z,77.30
2019-04-25T01:22:09.618Z,77.30
2019-04-25T01:24:38.714Z,77.30
2019-04-25T01:27:08.730Z,77.30
2019-04-25T01:29:37.627Z,77.30
2019-04-25T01:32:08.540Z,77.30
2019-04-25T01:34:44.279Z,77.20
2019-04-25T01:37:35.331Z,77.20
2019-04-25T01:40:35.607Z,77.20
2019-04-25T01:43:26.395Z,77.20
2019-04-25T01:45:56.623Z,77.30
2019-04-25T01:48:25.504Z,77.30
2019-04-25T01:50:55.429Z,76.90
2019-04-25T01:53:24.329Z,77.40
2019-04-25T01:56:01.549Z,77.50
2019-04-25T01:58:24.121Z,77.60
2019-04-25T02:00:55.072Z,77.70
2019-04-25T02:03:27.069Z,77.70
2019-04-25T02:05:55.244Z,77.70
2019-04-25T02:08:26.392Z,77.80
2019-04-25T02:11:06.687Z,77.90
2019-04-25T02:13:35.881Z,77.90
2019-04-25T02:16:06.303Z,77.90
2019-04-25T02:18:35.349Z,78.00
2019-04-25T02:21:04.939Z,78.10
2019-04-25T02:23:34.166Z,78.10
2019-04-25T02:26:14.583Z,78.20
2019-04-25T02:28:33.961Z,78.20
2019-04-25T02:31:08.159Z,78.30
2019-04-25T02:33:34.171Z,78.40
2019-04-25T02:36:08.275Z,78.40
2019-04-25T02:38:34.319Z,78.40
2019-04-25T02:41:08.274Z,78.50
2019-04-25T02:43:35.473Z,78.50
2019-04-25T02:46:30.708Z,78.50
2019-04-25T02:49:32.692Z,78.60
2019-04-25T02:52:06.928Z,78.50
2019-04-25T02:54:34.876Z,78.60
2019-04-25T02:57:06.605Z,78.60
2019-04-25T02:59:36.892Z,78.70
2019-04-25T03:02:07.011Z,78.70
2019-04-25T03:04:35.939Z,78.80
2019-04-25T03:07:08.178Z,78.80
2019-04-25T03:09:35.691Z,78.90
2019-04-25T03:12:06.516Z,78.90
2019-04-25T03:14:35.462Z,79.00
2019-04-25T03:17:06.595Z,79.00
2019-04-25T03:19:48.221Z,79.00
2019-04-25T03:22:20.081Z,79.10
2019-04-25T03:24:49.040Z,79.10
2019-04-25T03:27:17.849Z,79.10
2019-04-25T03:29:46.828Z,79.10
2019-04-25T03:32:19.560Z,79.20
2019-04-25T03:34:46.375Z,79.30
2019-04-25T03:37:15.247Z,79.30
2019-04-25T03:39:44.284Z,79.40
2019-04-25T03:42:14.083Z,79.40
2019-04-25T03:44:43.836Z,79.50
2019-04-25T03:47:13.545Z,79.50
2019-04-25T03:49:43.447Z,79.50
2019-04-25T03:52:14.154Z,79.60
2019-04-25T03:54:43.463Z,79.60
2019-04-25T03:57:14.321Z,79.70
2019-04-25T03:59:43.700Z,79.80
2019-04-25T04:02:13.506Z,79.80
2019-04-25T04:04:44.516Z,79.80
2019-04-25T04:07:14.719Z,80.00
2019-04-25T04:09:44.160Z,80.00
2019-04-25T04:12:14.470Z,80.10
2019-04-25T04:14:45.153Z,80.20
2019-04-25T04:17:48.017Z,80.20
2019-04-25T04:20:47.980Z,80.30
2019-04-25T04:23:35.998Z,80.40
2019-04-25T04:26:05.520Z,80.50
2019-04-25T04:28:35.207Z,80.60
2019-04-25T04:31:04.072Z,81.50
2019-04-25T04:33:34.582Z,80.80
2019-04-25T04:36:03.938Z,81.00
2019-04-25T04:38:34.304Z,81.00
2019-04-25T04:41:03.943Z,81.20
2019-04-25T04:43:36.354Z,81.20
2019-04-25T04:46:05.308Z,81.30
2019-04-25T04:48:34.333Z,81.30
2019-04-25T04:51:03.705Z,81.40
2019-04-25T04:53:33.874Z,81.50
2019-04-25T04:56:04.257Z,81.50
2019-04-25T04:58:34.316Z,81.50
2019-04-25T05:01:03.677Z,81.60
2019-04-25T05:03:44.140Z,81.60
2019-04-25T05:06:25.107Z,81.60
2019-04-25T05:09:01.400Z,81.60
2019-04-25T05:11:30.456Z,81.70
2019-04-25T05:13:59.421Z,81.60
2019-04-25T05:16:28.467Z,81.90
2019-04-25T05:18:57.560Z,81.70
2019-04-25T05:21:26.566Z,81.80
2019-04-25T05:23:55.635Z,81.70
2019-04-25T05:26:25.075Z,81.90
2019-04-25T05:28:54.960Z,81.90
2019-04-25T05:31:41.808Z,81.90
2019-04-25T05:34:10.815Z,81.80
2019-04-25T05:36:39.838Z,81.80
2019-04-25T05:39:11.584Z,81.70
2019-04-25T05:41:50.368Z,81.70
2019-04-25T05:44:22.785Z,81.60
2019-04-25T05:46:54.050Z,81.50
2019-04-25T05:49:24.913Z,81.40
2019-04-25T05:51:53.904Z,81.30
2019-04-25T05:54:24.789Z,81.20
2019-04-25T05:56:54.613Z,81.10
2019-04-25T05:59:25.549Z,81.00
2019-04-25T06:01:54.268Z,80.90
2019-04-25T06:04:25.089Z,80.80
2019-04-25T06:06:55.260Z,80.60
2019-04-25T06:09:44.434Z,80.40
2019-04-25T06:12:37.425Z,80.30
2019-04-25T06:15:06.600Z,80.30
2019-04-25T06:17:57.423Z,80.20
2019-04-25T06:20:29.528Z,80.10
2019-04-25T06:23:05.953Z,80.00
2019-04-25T06:25:39.612Z,79.90
2019-04-25T06:28:07.792Z,79.70
2019-04-25T06:30:36.827Z,79.70
2019-04-25T06:33:07.208Z,79.50
2019-04-25T06:35:36.208Z,79.30
2019-04-25T06:38:05.174Z,80.00
2019-04-25T06:40:34.585Z,78.90
2019-04-25T06:43:03.741Z,78.80
2019-04-25T06:45:57.827Z,78.60
2019-04-25T06:48:33.868Z,78.50
2019-04-25T06:51:03.617Z,78.30
2019-04-25T06:53:34.498Z,78.10
2019-04-25T06:56:03.571Z,77.90
2019-04-25T06:58:34.387Z,77.80
2019-04-25T07:01:03.515Z,77.60
2019-04-25T07:03:34.368Z,77.30
2019-04-25T07:06:03.323Z,77.10
2019-04-25T07:08:33.278Z,76.70
2019-04-25T07:11:03.911Z,76.80
2019-04-25T07:13:35.570Z,76.70
2019-04-25T07:16:04.675Z,77.40
2019-04-25T07:18:36.323Z,76.50
2019-04-25T07:21:04.275Z,76.50
2019-04-25T07:23:34.461Z,76.30
2019-04-25T07:26:10.289Z,76.20
2019-04-25T07:28:54.136Z,76.10
2019-04-25T07:31:35.711Z,76.10
2019-04-25T07:34:17.332Z,75.90
2019-04-25T07:36:46.247Z,75.90
2019-04-25T07:39:15.227Z,75.80
2019-04-25T07:41:44.231Z,75.60
2019-04-25T07:44:14.689Z,75.60
2019-04-25T07:46:43.828Z,75.50
2019-04-25T07:49:13.438Z,75.50
2019-04-25T07:51:43.478Z,75.50
2019-04-25T07:54:14.313Z,75.30
2019-04-25T07:56:43.726Z,75.40
2019-04-25T07:59:13.858Z,75.40
2019-04-25T08:02:03.375Z,75.50
2019-04-25T08:04:32.551Z,75.60
2019-04-25T08:07:01.600Z,75.50
2019-04-25T08:09:31.431Z,75.60
2019-04-25T08:12:03.267Z,75.60
2019-04-25T08:14:55.506Z,75.50
2019-04-25T08:17:42.137Z,75.50
2019-04-25T08:20:11.107Z,75.40
2019-04-25T08:22:51.946Z,75.30
2019-04-25T08:25:10.750Z,75.10
2019-04-25T08:27:39.729Z,75.00
2019-04-25T08:30:08.727Z,74.90
2019-04-25T08:32:37.773Z,74.70
2019-04-25T08:35:06.778Z,74.50
2019-04-25T08:37:36.615Z,74.40
2019-04-25T08:40:06.135Z,74.10
2019-04-25T08:42:36.478Z,73.80
2019-04-25T08:45:05.841Z,73.50
2019-04-25T08:47:36.063Z,73.20
2019-04-25T08:50:26.705Z,72.90
2019-04-25T08:52:46.048Z,72.60
2019-04-25T08:55:34.972Z,72.30
2019-04-25T08:58:17.485Z,71.70
2019-04-25T09:01:11.376Z,71.30
2019-04-25T09:03:46.402Z,70.80
2019-04-25T09:06:15.429Z,70.40
2019-04-25T09:08:46.569Z,70.20
2019-04-25T09:11:15.224Z,69.90
2019-04-25T09:13:45.047Z,69.60
2019-04-25T09:16:15.553Z,69.40
2019-04-25T09:18:45.380Z,69.10
2019-04-25T09:21:15.165Z,68.70
2019-04-25T09:23:44.867Z,68.30
2019-04-25T09:26:14.358Z,68.00
2019-04-25T09:28:45.352Z,67.50
2019-04-25T09:31:14.121Z,66.80
2019-04-25T09:33:45.048Z,65.70
2019-04-25T09:36:14.165Z,64.30
2019-04-25T09:38:47.983Z,62.60
2019-04-25T09:41:15.243Z,61.20
2019-04-25T09:43:46.042Z,60.10
2019-04-25T09:46:24.264Z,59.40
2019-04-25T09:49:15.064Z,58.80
2019-04-25T09:51:49.552Z,58.10
2019-04-25T09:54:33.524Z,57.50
2019-04-25T09:57:20.136Z,56.90
2019-04-25T09:59:49.084Z,56.40
2019-04-25T10:02:17.976Z,55.80
2019-04-25T10:04:47.005Z,55.40
2019-04-25T10:07:15.891Z,55.70
2019-04-25T10:09:44.964Z,55.00
2019-04-25T10:12:14.951Z,54.70
2019-04-25T10:15:23.961Z,54.40
2019-04-25T10:17:52.882Z,54.10
2019-04-25T10:20:23.177Z,53.90
2019-04-25T10:22:53.890Z,53.60
2019-04-25T10:25:23.440Z,53.30
2019-04-25T10:27:53.769Z,52.80
2019-04-25T10:30:24.272Z,52.50
2019-04-25T10:32:54.736Z,52.10
2019-04-25T10:35:23.953Z,51.80
2019-04-25T10:37:53.728Z,51.70
2019-04-25T10:40:25.091Z,51.60
2019-04-25T10:42:54.229Z,51.30
2019-04-25T10:45:25.814Z,51.00
2019-04-25T10:47:55.281Z,50.80
2019-04-25T10:50:24.593Z,50.50
2019-04-25T10:52:54.357Z,50.10
2019-04-25T10:55:23.464Z,49.80
2019-04-25T10:57:53.838Z,49.50
2019-04-25T11:00:31.674Z,49.20
2019-04-25T11:03:08.472Z,48.80
2019-04-25T11:05:37.484Z,48.60
2019-04-25T11:08:06.547Z,48.40
2019-04-25T11:10:35.493Z,48.20
2019-04-25T11:13:04.491Z,48.10
2019-04-25T11:15:33.966Z,47.80
2019-04-25T11:18:04.192Z,47.50
2019-04-25T11:20:33.831Z,47.30
2019-04-25T11:23:03.744Z,47.00
2019-04-25T11:25:34.197Z,46.70
2019-04-25T11:28:03.898Z,46.30
2019-04-25T11:30:33.136Z,45.90
2019-04-25T11:33:03.570Z,45.60
2019-04-25T11:35:34.213Z,45.30
2019-04-25T11:38:05.892Z,45.10
2019-04-25T11:40:40.352Z,44.90
2019-04-25T11:43:09.276Z,44.70
2019-04-25T11:45:38.528Z,44.50
2019-04-25T11:48:07.581Z,44.40
2019-04-25T11:50:37.087Z,44.40
2019-04-25T11:53:06.322Z,44.30
2019-04-25T11:55:35.357Z,44.30
2019-04-25T11:58:04.231Z,44.10
2019-04-25T12:00:34.169Z,44.00
2019-04-25T12:03:03.695Z,43.20
2019-04-25T12:05:34.284Z,43.60
2019-04-25T12:08:04.063Z,43.50
2019-04-25T12:10:34.612Z,43.50
2019-04-25T12:13:04.796Z,43.60
2019-04-25T12:15:33.704Z,43.60
2019-04-25T12:18:04.492Z,43.50
2019-04-25T12:20:34.048Z,43.60
2019-04-25T12:23:08.075Z,43.60
2019-04-25T12:25:34.123Z,43.60
2019-04-25T12:28:04.583Z,43.70
2019-04-25T12:30:38.115Z,43.70
2019-04-25T12:33:04.197Z,43.70
2019-04-25T12:35:33.382Z,43.70
2019-04-25T12:38:03.442Z,43.90
2019-04-25T12:40:34.228Z,43.90
2019-04-25T12:43:05.181Z,44.00
2019-04-25T12:45:59.045Z,44.00
2019-04-25T12:48:28.133Z,44.20
2019-04-25T12:50:57.144Z,44.20
2019-04-25T12:53:26.128Z,44.30
2019-04-25T12:55:56.118Z,44.40
2019-04-25T12:58:25.018Z,44.50
2019-04-25T13:00:57.208Z,44.70
2019-04-25T13:03:24.657Z,44.80
2019-04-25T13:05:54.044Z,44.90
2019-04-25T13:08:24.224Z,45.00
2019-04-25T13:10:54.373Z,45.00
2019-04-25T13:13:24.130Z,45.00
2019-04-25T13:15:53.346Z,45.00
2019-04-25T13:18:22.338Z,45.10
2019-04-25T13:20:51.216Z,45.20
2019-04-25T13:23:20.292Z,45.30
2019-04-25T13:25:49.450Z,45.50
2019-04-25T13:28:34.177Z,45.70
2019-04-25T13:31:19.164Z,46.10
2019-04-25T13:34:05.935Z,46.50
2019-04-25T13:36:35.155Z,47.00
2019-04-25T13:39:08.221Z,47.50
2019-04-25T13:41:38.556Z,48.10
2019-04-25T13:44:07.454Z,48.50
2019-04-25T13:46:36.437Z,48.90
2019-04-25T13:49:05.590Z,49.40
2019-04-25T13:51:34.443Z,50.00
2019-04-25T13:54:03.927Z,50.60
2019-04-25T13:56:33.696Z,51.10
2019-04-25T13:59:04.237Z,51.60
2019-04-25T14:01:33.939Z,52.10
2019-04-25T14:04:04.330Z,52.70
2019-04-25T14:06:33.260Z,53.30
2019-04-25T14:09:03.256Z,53.80
2019-04-25T14:11:32.728Z,54.60
2019-04-25T14:14:03.167Z,55.90
2019-04-25T14:16:39.407Z,58.20
2019-04-25T14:19:18.315Z,59.70
2019-04-25T14:21:47.580Z,61.30
2019-04-25T14:24:20.609Z,62.60
2019-04-25T14:26:48.681Z,63.70
2019-04-25T14:29:17.588Z,64.50
2019-04-25T14:31:48.487Z,65.20
2019-04-25T14:34:18.732Z,65.70
2019-04-25T14:36:47.559Z,66.10
2019-04-25T14:39:17.065Z,66.40
2019-04-25T14:41:46.186Z,66.50
2019-04-25T14:44:15.217Z,66.60
2019-04-25T14:46:44.404Z,66.70
2019-04-25T14:49:13.725Z,66.60
2019-04-25T14:51:42.725Z,66.50
2019-04-25T14:54:36.002Z,66.50
2019-04-25T14:57:10.688Z,66.40
2019-04-25T14:59:39.742Z,66.20
2019-04-25T15:02:10.634Z,66.10
2019-04-25T15:04:39.546Z,66.00
2019-04-25T15:07:08.591Z,65.90
2019-04-25T15:09:37.720Z,65.80
2019-04-25T15:12:06.656Z,65.80
2019-04-25T15:14:35.521Z,65.80
2019-04-25T15:17:05.579Z,65.50
2019-04-25T15:19:34.701Z,65.20
2019-04-25T15:22:03.740Z,65.30
2019-04-25T15:24:32.793Z,65.30
2019-04-25T15:27:01.812Z,65.20
2019-04-25T15:29:30.864Z,65.20
2019-04-25T15:31:59.834Z,65.10
2019-04-25T15:34:34.229Z,65.00
2019-04-25T15:37:09.357Z,65.10
2019-04-25T15:39:52.797Z,65.10
2019-04-25T15:42:58.889Z,65.20
2019-04-25T15:45:43.014Z,65.20
2019-04-25T15:48:12.029Z,65.00
2019-04-25T15:50:41.691Z,64.90
2019-04-25T15:53:10.677Z,64.60
2019-04-25T15:55:39.644Z,64.40
2019-04-25T15:58:08.468Z,63.90
2019-04-25T16:00:38.600Z,63.10
2019-04-25T16:03:08.416Z,62.60
2019-04-25T16:05:38.279Z,62.10
2019-04-25T16:08:07.891Z,61.90
2019-04-25T16:10:36.836Z,61.90
2019-04-25T16:13:07.440Z,61.90
2019-04-25T16:15:36.408Z,61.90
2019-04-25T16:18:07.290Z,62.00
2019-04-25T16:20:36.226Z,62.20
2019-04-25T16:23:05.400Z,62.20
2019-04-25T16:25:35.407Z,62.30
2019-04-25T16:28:04.593Z,62.20
2019-04-25T16:30:34.528Z,62.30
2019-04-25T16:33:04.254Z,62.30
2019-04-25T16:35:33.498Z,62.30
2019-04-25T16:38:02.405Z,62.30
2019-04-25T16:40:31.906Z,62.30
2019-04-25T16:43:02.817Z,62.20
2019-04-25T16:45:32.099Z,62.30
2019-04-25T16:48:01.108Z,62.40
2019-04-25T16:50:30.227Z,62.40
2019-04-25T16:52:59.182Z,62.50
2019-04-25T16:55:29.270Z,62.50
2019-04-25T16:57:59.008Z,62.50
2019-04-25T17:00:45.954Z,62.60
2019-04-25T17:03:18.519Z,62.60
2019-04-25T17:05:47.509Z,62.60
2019-04-25T17:08:16.559Z,62.60
2019-04-25T17:10:45.583Z,62.80
2019-04-25T17:13:14.685Z,63.00
2019-04-25T17:16:11.710Z,62.90
2019-04-25T17:18:48.311Z,63.10
2019-04-25T17:21:17.229Z,62.90
2019-04-25T17:23:46.238Z,63.00
2019-04-25T17:26:15.287Z,63.10
2019-04-25T17:28:46.013Z,63.00
2019-04-25T17:31:28.114Z,63.00
2019-04-25T17:34:18.980Z,63.00
2019-04-25T17:36:54.684Z,63.00
2019-04-25T17:39:37.510Z,63.10
2019-04-25T17:42:06.518Z,63.20
2019-04-25T17:44:36.324Z,63.40
2019-04-25T17:47:06.573Z,63.60
2019-04-25T17:49:36.768Z,63.80
2019-04-25T17:52:05.705Z,64.10
2019-04-25T17:54:34.557Z,64.40
2019-04-25T17:57:03.519Z,64.60
2019-04-25T17:59:33.467Z,64.80
2019-04-25T18:02:03.393Z,65.00
2019-04-25T18:04:34.009Z,65.20
2019-04-25T18:07:04.706Z,65.30
2019-04-25T18:09:34.407Z,65.30
2019-04-25T18:12:04.403Z,65.20
2019-04-25T18:14:34.043Z,65.00
2019-04-25T18:17:04.164Z,64.80
2019-04-25T18:19:37.271Z,64.70
2019-04-25T18:22:16.261Z,64.70
2019-04-25T18:25:11.923Z,64.70
2019-04-25T18:28:01.389Z,64.90
2019-04-25T18:30:30.834Z,65.00
2019-04-25T18:33:13.452Z,65.10
2019-04-25T18:35:43.904Z,65.30
2019-04-25T18:38:37.779Z,65.30
2019-04-25T18:41:28.731Z,65.50
2019-04-25T18:44:00.217Z,65.60
2019-04-25T18:46:32.639Z,65.90
2019-04-25T18:49:01.746Z,66.10
2019-04-25T18:51:32.147Z,66.30
2019-04-25T18:54:16.165Z,66.40
2019-04-25T18:57:10.335Z,66.60
2019-04-25T19:00:04.594Z,66.80
2019-04-25T19:02:51.496Z,66.90
2019-04-25T19:05:42.855Z,67.10
2019-04-25T19:08:12.000Z,67.20
2019-04-25T19:10:42.927Z,67.40
2019-04-25T19:13:13.164Z,67.40
2019-04-25T19:15:47.149Z,67.50
2019-04-25T19:18:15.884Z,67.60
2019-04-25T19:20:46.019Z,67.40
2019-04-25T19:23:15.115Z,67.40
2019-04-25T19:25:44.020Z,67.30
2019-04-25T19:28:12.955Z,67.40
2019-04-25T19:30:43.044Z,67.00
2019-04-25T19:33:11.916Z,66.60
2019-04-25T19:35:41.691Z,66.30
2019-04-25T19:38:10.644Z,66.00
2019-04-25T19:40:50.609Z,65.60
2019-04-25T19:43:34.572Z,65.30
2019-04-25T19:46:03.844Z,65.10
2019-04-25T19:48:32.885Z,65.00
2019-04-25T19:51:01.891Z,65.00
2019-04-25T19:53:30.872Z,64.90
2019-04-25T19:55:59.914Z,65.00
2019-04-25T19:58:28.934Z,65.10
2019-04-25T20:00:57.960Z,65.40
2019-04-25T20:03:49.102Z,65.40
2019-04-25T20:06:18.301Z,65.60
2019-04-25T20:09:09.573Z,65.70
2019-04-25T20:11:42.772Z,66.00
2019-04-25T20:14:13.690Z,66.20
2019-04-25T20:16:46.056Z,66.50
2019-04-25T20:19:15.234Z,66.80
2019-04-25T20:21:45.812Z,67.00
2019-04-25T20:24:15.091Z,68.10
2019-04-25T20:26:45.000Z,67.40
2019-04-25T20:29:14.646Z,67.70
2019-04-25T20:31:45.137Z,68.00
2019-04-25T20:34:14.382Z,68.30
2019-04-25T20:36:55.820Z,68.40
2019-04-25T20:39:27.699Z,68.70
2019-04-25T20:41:55.998Z,68.90
2019-04-25T20:44:24.955Z,69.10
2019-04-25T20:46:54.755Z,69.20
2019-04-25T20:49:23.842Z,69.40
2019-04-25T20:51:52.808Z,69.50
2019-04-25T20:54:21.707Z,69.70
2019-04-25T20:56:50.940Z,69.70
2019-04-25T20:59:19.982Z,69.70
2019-04-25T21:01:49.727Z,69.80
2019-04-25T21:04:36.767Z,69.70
2019-04-25T21:07:05.863Z,69.70
2019-04-25T21:09:34.704Z,70.40
2019-04-25T21:12:03.719Z,69.70
2019-04-25T21:14:44.784Z,69.70
2019-04-25T21:17:20.453Z,69.80
2019-04-25T21:19:51.296Z,69.70
2019-04-25T21:22:19.885Z,69.80
2019-04-25T21:24:50.532Z,69.90
2019-04-25T21:27:20.622Z,70.00
2019-04-25T21:29:49.656Z,70.00
2019-04-25T21:32:20.264Z,70.10
2019-04-25T21:34:49.206Z,70.20
2019-04-25T21:37:18.473Z,70.40
2019-04-25T21:40:06.887Z,70.50
2019-04-25T21:42:51.565Z,70.70
2019-04-25T21:45:21.263Z,70.90
2019-04-25T21:47:50.457Z,71.00
2019-04-25T21:50:19.711Z,71.10
2019-04-25T21:52:49.069Z,71.20
2019-04-25T21:55:18.284Z,71.40
2019-04-25T21:57:47.591Z,71.40
2019-04-25T22:00:30.444Z,71.60
2019-04-25T22:03:00.854Z,71.80
2019-04-25T22:05:30.057Z,71.80
2019-04-25T22:07:59.320Z,71.90
2019-04-25T22:10:29.468Z,72.00
2019-04-25T22:13:11.282Z,72.10
2019-04-25T22:15:29.278Z,72.20
2019-04-25T22:17:58.545Z,72.30
2019-04-25T22:20:27.603Z,72.30
2019-04-25T22:22:57.022Z,72.40
2019-04-25T22:25:26.470Z,72.50
2019-04-25T22:27:56.567Z,72.60
2019-04-25T22:30:25.844Z,72.70
2019-04-25T22:33:04.064Z,72.70
2019-04-25T22:35:38.017Z,72.80
2019-04-25T22:38:08.224Z,72.90
2019-04-25T22:40:37.386Z,73.10
2019-04-25T22:43:07.813Z,73.20
2019-04-25T22:45:37.153Z,73.30
2019-04-25T22:48:06.662Z,73.50
2019-04-25T22:50:35.997Z,73.50
2019-04-25T22:53:05.011Z,73.60
2019-04-25T22:55:34.972Z,73.70
2019-04-25T22:58:03.958Z,73.90
2019-04-25T23:00:36.407Z,73.90
2019-04-25T23:03:11.420Z,74.10
2019-04-25T23:05:44.119Z,74.10
2019-04-25T23:08:13.288Z,74.30
2019-04-25T23:10:42.206Z,74.30
2019-04-25T23:13:13.373Z,74.50
2019-04-25T23:15:42.388Z,74.60
2019-04-25T23:18:11.547Z,74.60
2019-04-25T23:20:40.580Z,74.80
2019-04-25T23:23:09.766Z,74.90
2019-04-25T23:25:57.832Z,74.90
2019-04-25T23:28:30.225Z,74.90
2019-04-25T23:31:15.019Z,75.00
2019-04-25T23:33:44.125Z,75.20
2019-04-25T23:36:13.475Z,75.20
2019-04-25T23:38:42.332Z,75.30
2019-04-25T23:41:11.540Z,75.30
2019-04-25T23:43:40.493Z,75.30
2019-04-25T23:46:10.074Z,75.50
2019-04-25T23:48:39.476Z,75.60
2019-04-25T23:51:08.789Z,75.70
2019-04-25T23:53:38.164Z,75.80
2019-04-25T23:56:07.784Z,76.00
2019-04-25T23:58:37.917Z,76.10
